Aeroporto :
LOGIN :

Iscrizione | Disclaimer

   EN    FR    IT 

 










Sommario :    VFR   VFR Marginale   IFR   IFR Intensivo   IFR Molto Intensivo
Visibilità : 
Base nubi : 
>= 8 km
>= 3000ft
5 / 8 km
1000 / 3000 ft
1500m / 5 km
500 / 1000 ft
800 / 1500m
200 / 500 ft
< 800m
< 200 ft
Simboli :   Temporali  Nebbia  Neve Forte  Precipitazioni Forti  Vento > 20 kt
SIGMETs :   Varie  Temporali  Ghiacco  Turbolenza  Onda orograficha  Ceneri Vulcaniche







- Altitudine del aeroporto : 1910 ft
- Codice IATA : RDZ
- Carte del aeroporto


LFCR - Rodez

ULTIMO METAR :
  • 210530Z AUTO 29005KT 260V320 CAVOK 13/11 Q1017 NOSIG

METARs OBSOLETI :
  • 210500Z AUTO 28007KT 9999 FEW041 BKN064 13/11 Q1017 NOSIG
  • 210430Z AUTO 28008KT 9999 FEW031 OVC038 14/11 Q1017 NOSIG
  • 210400Z AUTO 27006KT 9999 OVC030 14/11 Q1017 NOSIG
  • 210330Z AUTO 28009KT 9999 BKN030 BKN038 OVC056 14/11 Q1017 NOSIG
  • 210300Z AUTO 27009KT 9999 FEW028 BKN038 BKN044 14/11 Q1017 NOSIG

TAF TAF LFCR
Valido dal 21 a 06 ore il 22 a 06 ore UTC


210500Z 2106/2206 28008KT 9999 BKN035
BECMG 2119/2121 CAVOK
BECMG 2123/2201 VRB02KT
Nessun NOTAM noto per questo aeroporto.



MetMap, La meteo Aeronautica in un colpo d'occhio ! - Copyright ORBIFLY Dicembre 2007 - Disclaimer

ORBIFLY MET'MAP TEAM :

Programmazione e sviluppo : Alexandra Zaïnal
Concezione e sviluppo : Baudouin d'Aumeries
Co-Programmazione e sviluppo : Marc-Olivier Méhu
Supporto tecnico e logistico : Manuel Goepfert
Aiuto per la traduzione : Arnaldo La Scala

Contatto : metmap@orbifly.com




FONTI E CREDITI :

   NOAA